Time;durP1;ratioP1;P1;durP2;ratioP2;P2;SDS_P1;SDS_P2;PMS_P1;PMS_P2;Temp;Humidity;BMP_temperature;BMP_pressure;BME280_temperature;BME280_humidity;BME280_pressure;Samples;Min_cycle;Max_cycle;Signal;HPM_P1;HPM_P2
2022/06/02 00:00:11;;;;;;;2.20;1.30;;;12.00;99.90;;;;;;4903493;29;20483;-75
2022/06/02 00:03:08;;;;;;;2.20;1.20;;;12.00;99.90;;;;;;4919020;29;20044;-76
2022/06/02 00:05:51;;;;;;;3.17;1.42;;;12.00;99.90;;;;;;4894228;29;20139;-77
2022/06/02 00:08:43;;;;;;;1.70;1.20;;;12.00;99.90;;;;;;4887732;29;20111;-76
2022/06/02 00:11:34;;;;;;;4.43;1.42;;;12.00;99.90;;;;;;4910394;29;20063;-76
2022/06/02 00:14:19;;;;;;;2.35;1.35;;;11.90;99.90;;;;;;4910141;29;20052;-76
2022/06/02 00:17:15;;;;;;;3.80;1.50;;;12.00;99.90;;;;;;4910311;29;20502;-75
2022/06/02 00:19:53;;;;;;;3.42;1.48;;;11.90;99.90;;;;;;4904363;29;20139;-76
2022/06/02 00:22:43;;;;;;;3.80;1.20;;;11.90;99.90;;;;;;4919146;29;20063;-76
2022/06/02 00:25:17;;;;;;;2.58;1.30;;;11.90;99.90;;;;;;4920920;29;20044;-76
2022/06/02 00:27:58;;;;;;;3.28;1.40;;;11.90;99.90;;;;;;4910634;29;20056;-75
2022/06/02 00:30:29;;;;;;;1.95;1.20;;;11.80;99.90;;;;;;4910047;29;20083;-75
2022/06/02 00:33:21;;;;;;;2.58;1.30;;;11.80;99.90;;;;;;4904329;29;20102;-75
2022/06/02 00:35:56;;;;;;;3.05;1.25;;;11.70;99.90;;;;;;4904361;29;20464;-75
2022/06/02 00:38:31;;;;;;;2.60;1.20;;;11.80;99.90;;;;;;4895296;29;20135;-76
2022/06/02 00:41:21;;;;;;;1.83;1.27;;;11.70;99.90;;;;;;4908808;29;20130;-76
2022/06/02 00:44:10;;;;;;;4.22;1.40;;;11.70;99.90;;;;;;4909023;29;20056;-76
2022/06/02 00:46:36;;;;;;;2.67;1.40;;;11.70;99.90;;;;;;4902896;29;20059;-75
2022/06/02 00:49:21;;;;;;;3.75;1.30;;;11.70;99.90;;;;;;4910093;29;20059;-75
2022/06/02 00:52:11;;;;;;;3.13;1.30;;;11.60;99.90;;;;;;4919932;29;20060;-75
2022/06/02 00:57:52;;;;;;;2.45;1.27;;;11.70;99.90;;;;;;4902641;29;20052;-76
2022/06/02 01:00:22;;;;;;;1.90;1.20;;;11.70;99.90;;;;;;4909258;29;20510;-75
2022/06/02 01:02:55;;;;;;;1.95;1.30;;;11.70;99.90;;;;;;4918267;29;20067;-76
2022/06/02 01:05:57;;;;;;;3.15;1.20;;;11.30;99.90;;;;;;4917842;29;20825;-76
2022/06/02 01:08:32;;;;;;;3.20;1.45;;;11.70;99.90;;;;;;4911985;29;20055;-76
2022/06/02 01:11:27;;;;;;;2.20;1.20;;;11.70;99.90;;;;;;4901829;29;20052;-75
2022/06/02 01:14:31;;;;;;;3.15;1.70;;;11.70;99.90;;;;;;4902269;29;20104;-76
2022/06/02 01:17:03;;;;;;;3.80;1.40;;;11.70;99.90;;;;;;4893390;29;20446;-75
2022/06/02 01:19:28;;;;;;;1.98;1.33;;;11.70;99.90;;;;;;4909974;29;20509;-76
2022/06/02 01:22:28;;;;;;;3.15;1.20;;;11.70;99.90;;;;;;4907210;29;20135;-76
2022/06/02 01:25:06;;;;;;;2.35;1.52;;;11.90;99.90;;;;;;4909353;29;20467;-76
2022/06/02 01:27:41;;;;;;;2.60;1.20;;;11.60;99.90;;;;;;4918881;29;20056;-76
2022/06/02 01:30:22;;;;;;;2.45;1.10;;;11.70;99.90;;;;;;4885683;29;20059;-76
2022/06/02 01:33:00;;;;;;;1.80;1.30;;;11.70;99.90;;;;;;4906251;29;20056;-76
2022/06/02 01:35:37;;;;;;;3.58;1.50;;;11.70;99.90;;;;;;4909800;29;20063;-75
2022/06/02 01:38:21;;;;;;;1.88;1.20;;;11.70;99.90;;;;;;4917698;29;20321;-76
2022/06/02 01:41:11;;;;;;;1.83;1.30;;;11.70;99.90;;;;;;4909072;29;20060;-77
2022/06/02 01:43:49;;;;;;;1.65;1.23;;;11.70;99.90;;;;;;4917356;29;20060;-75
2022/06/02 01:46:25;;;;;;;1.98;1.20;;;11.60;99.90;;;;;;4909211;29;20048;-75
2022/06/02 01:49:00;;;;;;;3.45;1.30;;;11.60;99.90;;;;;;4903127;29;20110;-75
2022/06/02 01:51:45;;;;;;;1.65;1.10;;;11.60;99.90;;;;;;4912407;29;20060;-76
2022/06/02 01:54:19;;;;;;;3.45;1.30;;;11.60;99.90;;;;;;4911155;29;20056;-75
2022/06/02 01:56:57;;;;;;;3.55;1.50;;;11.60;99.90;;;;;;4905273;29;20059;-76
2022/06/02 01:59:29;;;;;;;1.80;1.00;;;11.60;99.90;;;;;;4921307;29;20112;-76
2022/06/02 02:02:37;;;;;;;3.08;1.10;;;11.60;99.90;;;;;;4921269;29;20058;-75
2022/06/02 02:05:08;;;;;;;1.75;1.00;;;11.60;99.90;;;;;;4912075;29;20507;-74
2022/06/02 02:07:57;;;;;;;2.22;1.02;;;11.60;99.90;;;;;;4922745;29;20057;-76
2022/06/02 02:10:44;;;;;;;2.42;1.27;;;11.70;99.90;;;;;;4921309;29;20616;-75
2022/06/02 02:13:35;;;;;;;2.15;1.10;;;11.70;99.90;;;;;;4904791;29;20049;-75
2022/06/02 02:16:32;;;;;;;4.30;1.27;;;11.60;99.90;;;;;;4920644;29;20052;-76
2022/06/02 02:18:58;;;;;;;;;;;11.60;99.90;;;;;;4922290;29;20174;-75
2022/06/02 02:21:28;;;;;;;3.00;1.00;;;11.60;99.90;;;;;;4896407;29;19931;-75
2022/06/02 02:24:35;;;;;;;2.72;1.30;;;11.60;99.90;;;;;;4920852;29;20498;-76
2022/06/02 02:27:07;;;;;;;;;;;11.50;99.90;;;;;;4911998;29;20127;-76
2022/06/02 02:29:33;;;;;;;1.45;1.00;;;11.50;99.90;;;;;;4912440;29;19927;-76
2022/06/02 02:32:36;;;;;;;2.60;1.10;;;11.40;99.90;;;;;;4910428;29;20055;-76
2022/06/02 02:35:57;;;;;;;2.20;1.20;;;11.40;99.90;;;;;;4909804;29;20057;-76
2022/06/02 02:38:55;;;;;;;2.13;1.40;;;11.40;99.90;;;;;;4905942;29;20055;-76
2022/06/02 02:41:40;;;;;;;3.38;1.38;;;11.40;99.90;;;;;;4905989;29;20056;-75
2022/06/02 02:44:24;;;;;;;2.08;1.38;;;11.40;99.90;;;;;;4905052;29;20048;-75
2022/06/02 02:46:56;;;;;;;2.35;1.33;;;11.40;99.90;;;;;;4904418;29;20060;-77
2022/06/02 02:49:36;;;;;;;3.03;1.42;;;11.40;99.90;;;;;;4911971;29;20048;-75
2022/06/02 02:52:10;;;;;;;2.50;1.58;;;11.40;99.90;;;;;;4905243;29;20175;-76
2022/06/02 02:54:48;;;;;;;4.03;1.40;;;11.40;99.90;;;;;;4904699;29;20053;-76
2022/06/02 02:57:13;;;;;;;6.00;1.40;;;11.40;99.90;;;;;;4921629;29;20146;-75
2022/06/02 02:59:57;;;;;;;4.72;1.70;;;11.40;99.90;;;;;;4920799;29;20063;-76
2022/06/02 03:02:42;;;;;;;5.05;1.63;;;11.40;99.90;;;;;;4905219;29;20056;-76
2022/06/02 03:05:12;;;;;;;1.75;1.20;;;11.40;99.90;;;;;;4920779;29;20188;-76
2022/06/02 03:07:38;;;;;;;1.90;1.30;;;11.40;99.90;;;;;;4921948;29;20175;-75
2022/06/02 03:10:15;;;;;;;2.10;1.35;;;10.90;99.90;;;;;;4911746;29;20059;-76
2022/06/02 03:13:26;;;;;;;2.70;1.40;;;11.40;99.90;;;;;;4904949;29;20052;-76
2022/06/02 03:16:00;;;;;;;2.17;1.30;;;11.40;99.90;;;;;;4912203;29;20139;-76
2022/06/02 03:18:32;;;;;;;2.05;1.27;;;11.40;99.90;;;;;;4904460;29;20087;-76
2022/06/02 03:21:10;;;;;;;2.50;1.38;;;11.50;99.90;;;;;;4919887;29;20124;-75
2022/06/02 03:24:02;;;;;;;5.03;1.50;;;11.30;99.90;;;;;;4904367;29;20095;-76
2022/06/02 03:26:43;;;;;;;2.20;1.30;;;11.50;99.90;;;;;;4912024;29;20071;-76
2022/06/02 03:29:28;;;;;;;2.10;1.50;;;11.50;99.90;;;;;;4909472;29;20098;-75
2022/06/02 03:32:11;;;;;;;2.63;1.40;;;11.60;99.90;;;;;;4911324;29;20371;-77
2022/06/02 03:34:59;;;;;;;2.70;1.60;;;11.60;99.90;;;;;;4905855;29;20135;-75
2022/06/02 03:37:50;;;;;;;3.38;1.55;;;11.60;99.90;;;;;;4911646;29;20056;-75
2022/06/02 03:40:46;;;;;;;2.83;1.67;;;11.60;99.90;;;;;;4903115;29;20092;-76
2022/06/02 03:43:23;;;;;;;2.10;1.30;;;11.60;99.90;;;;;;4906387;29;20056;-76
2022/06/02 03:46:17;;;;;;;1.80;1.15;;;11.70;99.90;;;;;;4906194;29;20072;-75
2022/06/02 03:49:20;;;;;;;3.00;1.30;;;11.60;99.90;;;;;;4920940;29;20563;-75
2022/06/02 03:52:12;;;;;;;2.40;1.33;;;11.70;99.90;;;;;;4911300;29;20935;-76
2022/06/02 03:54:56;;;;;;;1.95;1.20;;;12.20;99.90;;;;;;4903199;29;20131;-76
2022/06/02 03:57:50;;;;;;;2.72;1.20;;;11.80;99.90;;;;;;4920547;29;20447;-76
2022/06/02 04:00:29;;;;;;;2.15;1.25;;;11.80;99.90;;;;;;4919742;29;20259;-76
2022/06/02 04:03:07;;;;;;;2.67;1.17;;;11.90;99.90;;;;;;4910829;29;20514;-76
2022/06/02 04:06:15;;;;;;;1.83;1.08;;;11.90;99.90;;;;;;4908703;29;20048;-76
2022/06/02 04:09:15;;;;;;;3.00;0.90;;;12.00;99.90;;;;;;4922455;29;20051;-76
2022/06/02 04:15:00;;;;;;;1.48;0.93;;;11.50;99.90;;;;;;4905731;29;20059;-76
2022/06/02 04:17:47;;;;;;;1.95;0.90;;;12.00;99.90;;;;;;4907090;29;20044;-77
2022/06/02 04:20:41;;;;;;;1.73;0.95;;;12.00;99.90;;;;;;4904060;29;20123;-76
2022/06/02 04:23:37;;;;;;;2.60;0.90;;;12.00;99.90;;;;;;4905683;29;20594;-77
2022/06/02 04:26:17;;;;;;;2.72;1.02;;;12.00;99.90;;;;;;4909428;29;20048;-77
2022/06/02 04:28:58;;;;;;;2.95;1.13;;;12.10;99.90;;;;;;4904519;29;20074;-77
2022/06/02 04:31:42;;;;;;;1.42;1.10;;;12.10;99.90;;;;;;4918834;29;20517;-76
2022/06/02 04:34:10;;;;;;;1.63;0.98;;;12.20;99.90;;;;;;4906780;29;20075;-76
2022/06/02 04:36:49;;;;;;;1.00;0.80;;;12.20;99.90;;;;;;4909852;29;20056;-76
2022/06/02 04:39:40;;;;;;;1.30;0.90;;;12.10;99.90;;;;;;4905138;29;20048;-77
2022/06/02 04:42:41;;;;;;;1.45;0.90;;;12.10;99.90;;;;;;4902769;29;20087;-77
2022/06/02 04:45:58;;;;;;;1.65;0.90;;;12.20;99.90;;;;;;4898535;29;20060;-77
2022/06/02 04:48:52;;;;;;;3.45;0.90;;;12.20;99.90;;;;;;4901505;29;20086;-76
2022/06/02 04:51:29;;;;;;;1.98;0.98;;;12.20;99.90;;;;;;4909660;29;20048;-77
2022/06/02 04:54:15;;;;;;;1.27;0.80;;;12.10;99.90;;;;;;4918457;29;20065;-76
2022/06/02 04:57:02;;;;;;;1.17;0.88;;;12.20;99.90;;;;;;4902521;29;20056;-76
2022/06/02 04:59:39;;;;;;;1.77;0.90;;;12.20;99.90;;;;;;4902407;29;20050;-76
2022/06/02 05:02:34;;;;;;;1.75;1.00;;;12.20;99.90;;;;;;4908868;29;20049;-78
2022/06/02 05:05:23;;;;;;;2.55;0.80;;;12.20;99.90;;;;;;4917805;29;20044;-76
2022/06/02 05:08:28;;;;;;;1.27;0.90;;;12.20;99.90;;;;;;4901192;29;20123;-76
2022/06/02 05:11:10;;;;;;;2.38;1.10;;;12.20;99.90;;;;;;4915888;29;20088;-76
2022/06/02 05:14:00;;;;;;;1.83;1.08;;;12.30;99.90;;;;;;4899387;29;20087;-77
2022/06/02 05:16:44;;;;;;;2.15;1.10;;;12.30;99.90;;;;;;4915956;29;20052;-77
2022/06/02 05:19:28;;;;;;;2.22;1.00;;;12.40;99.90;;;;;;4900574;29;20127;-77
2022/06/02 05:22:06;;;;;;;1.52;0.98;;;12.40;99.90;;;;;;4916748;29;20220;-77
2022/06/02 05:25:22;;;;;;;1.50;0.90;;;12.40;99.90;;;;;;4912333;29;20948;-77
2022/06/02 05:28:06;;;;;;;0.63;0.63;;;12.50;99.90;;;;;;4905738;29;20083;-77
2022/06/02 05:31:03;;;;;;;1.98;0.90;;;12.60;99.90;;;;;;4912968;29;20060;-77
2022/06/02 05:33:50;;;;;;;;;;;12.60;99.90;;;;;;4906125;29;20048;-76
2022/06/02 05:36:49;;;;;;;2.25;0.95;;;12.60;99.90;;;;;;4912716;29;19927;-76
2022/06/02 05:39:23;;;;;;;1.25;0.90;;;12.70;99.90;;;;;;4919671;29;20095;-76
2022/06/02 05:42:03;;;;;;;2.33;0.80;;;12.80;99.90;;;;;;4905604;29;20086;-76
2022/06/02 05:44:44;;;;;;;2.65;1.17;;;13.00;99.90;;;;;;4922030;29;20142;-76
2022/06/02 05:47:28;;;;;;;1.95;0.82;;;13.10;99.90;;;;;;4911108;29;20092;-77
2022/06/02 05:49:54;;;;;;;1.42;1.00;;;13.20;99.90;;;;;;4906648;29;20067;-83
2022/06/02 05:52:29;;;;;;;2.47;1.00;;;13.30;99.90;;;;;;4920282;29;20052;-77
2022/06/02 05:55:23;;;;;;;3.20;1.10;;;13.40;99.90;;;;;;4912619;29;20064;-76
2022/06/02 05:58:24;;;;;;;1.55;1.00;;;14.20;99.90;;;;;;4922650;29;20144;-77
2022/06/02 06:01:11;;;;;;;1.73;1.10;;;13.70;99.90;;;;;;4886180;29;20064;-78
2022/06/02 06:03:43;;;;;;;1.90;0.98;;;13.80;99.90;;;;;;4921454;29;20056;-76
2022/06/02 06:06:33;;;;;;;1.92;1.10;;;13.90;99.90;;;;;;4889100;29;20517;-77
2022/06/02 06:09:15;;;;;;;2.63;0.95;;;14.00;99.90;;;;;;4912635;29;20087;-76
2022/06/02 06:12:02;;;;;;;1.42;0.90;;;14.00;99.90;;;;;;4905943;29;20130;-75
2022/06/02 06:14:38;;;;;;;1.80;1.10;;;14.10;99.90;;;;;;4908820;29;20063;-76
2022/06/02 06:17:36;;;;;;;4.13;1.30;;;14.20;99.90;;;;;;4920470;29;20052;-77
2022/06/02 06:20:51;;;;;;;2.88;0.90;;;14.30;99.90;;;;;;4909545;29;20171;-76
2022/06/02 06:23:56;;;;;;;1.42;0.98;;;14.30;99.90;;;;;;4861552;29;20101;-77
2022/06/02 06:26:45;;;;;;;2.13;1.10;;;14.40;99.90;;;;;;4904206;29;20105;-76
2022/06/02 06:29:39;;;;;;;1.70;1.05;;;14.40;99.90;;;;;;4912280;29;20136;-76
2022/06/02 06:32:17;;;;;;;3.17;1.02;;;14.50;99.90;;;;;;4907104;29;20084;-76
2022/06/02 06:34:49;;;;;;;3.50;1.20;;;14.70;99.90;;;;;;4900611;29;20056;-76
2022/06/02 06:37:49;;;;;;;2.75;1.00;;;14.80;99.90;;;;;;4900565;29;20111;-77
2022/06/02 06:40:39;;;;;;;1.35;0.80;;;15.00;99.90;;;;;;4888130;29;20064;-75
2022/06/02 06:43:25;;;;;;;2.15;1.05;;;14.80;99.90;;;;;;4911229;29;20088;-77
2022/06/02 06:46:20;;;;;;;3.67;0.95;;;14.90;99.90;;;;;;4903507;29;20159;-76
2022/06/02 06:48:55;;;;;;;1.60;0.90;;;15.10;99.90;;;;;;4918403;29;20087;-77
2022/06/02 06:51:40;;;;;;;1.95;0.70;;;15.20;99.90;;;;;;4905398;29;20056;-76
2022/06/02 06:54:20;;;;;;;2.33;1.17;;;15.20;99.90;;;;;;4905016;29;20091;-75
2022/06/02 06:57:02;;;;;;;3.35;1.00;;;15.20;99.90;;;;;;4904702;29;20502;-75
2022/06/02 06:59:52;;;;;;;1.50;0.98;;;15.40;99.90;;;;;;4904871;29;20495;-75
2022/06/02 07:02:32;;;;;;;1.27;0.90;;;15.50;99.90;;;;;;4919742;29;20060;-76
2022/06/02 07:05:34;;;;;;;2.28;1.00;;;15.60;99.90;;;;;;4919789;29;20044;-76
2022/06/02 07:08:15;;;;;;;3.53;0.90;;;15.60;99.90;;;;;;4921781;29;20542;-76
2022/06/02 07:11:02;;;;;;;1.95;0.98;;;15.70;99.90;;;;;;4920406;29;20055;-76
2022/06/02 07:13:40;;;;;;;2.13;1.00;;;15.80;99.90;;;;;;4919434;29;20078;-76
2022/06/02 07:16:48;;;;;;;2.53;1.00;;;15.70;99.90;;;;;;4904336;29;20070;-78
2022/06/02 07:19:22;;;;;;;2.50;1.10;;;15.90;99.90;;;;;;4893481;29;20549;-75
2022/06/02 07:22:19;;;;;;;3.08;0.77;;;15.90;99.90;;;;;;4902900;29;20064;-75
2022/06/02 07:24:50;;;;;;;2.95;1.02;;;15.90;99.90;;;;;;4905392;29;20044;-76
2022/06/02 07:27:22;;;;;;;2.47;0.93;;;16.10;99.90;;;;;;4919192;29;20517;-76
2022/06/02 07:30:23;;;;;;;1.77;0.80;;;16.10;99.90;;;;;;4894506;29;20053;-75
2022/06/02 07:33:21;;;;;;;2.22;0.95;;;15.90;99.90;;;;;;4910699;29;20067;-76
2022/06/02 07:36:21;;;;;;;2.33;0.77;;;15.70;99.90;;;;;;4895020;29;20064;-75
2022/06/02 07:38:47;;;;;;;2.78;1.00;;;15.90;99.90;;;;;;4919701;29;20052;-75
2022/06/02 07:41:24;;;;;;;2.25;0.90;;;16.10;99.90;;;;;;4921303;29;20059;-77
2022/06/02 07:44:22;;;;;;;1.70;1.13;;;16.30;99.90;;;;;;4920116;29;20131;-75
2022/06/02 07:47:10;;;;;;;2.70;1.05;;;16.50;99.90;;;;;;4908725;29;20162;-76
2022/06/02 07:49:52;;;;;;;3.58;1.15;;;16.80;99.90;;;;;;4917572;29;20044;-75
2022/06/02 07:52:43;;;;;;;2.33;0.90;;;16.80;99.90;;;;;;4894485;29;20554;-75
2022/06/02 07:55:34;;;;;;;1.67;0.88;;;16.90;99.90;;;;;;4906787;29;20060;-77
2022/06/02 07:58:29;;;;;;;2.53;0.93;;;16.90;99.90;;;;;;4921282;29;20406;-75
2022/06/02 08:01:11;;;;;;;2.55;0.90;;;16.80;99.90;;;;;;4910902;29;20056;-75
2022/06/02 08:03:44;;;;;;;2.40;0.73;;;17.20;99.90;;;;;;4902605;29;20130;-76
2022/06/02 08:06:40;;;;;;;1.70;0.88;;;16.70;99.90;;;;;;4901896;29;20048;-77
2022/06/02 08:09:15;;;;;;;1.15;0.80;;;16.90;99.90;;;;;;4886833;29;20876;-77
2022/06/02 08:12:00;;;;;;;1.95;0.82;;;16.80;99.90;;;;;;4909936;29;20056;-77
2022/06/02 08:15:02;;;;;;;2.05;1.10;;;16.70;99.90;;;;;;4909949;29;20399;-77
2022/06/02 08:17:56;;;;;;;1.88;0.85;;;16.90;99.90;;;;;;4907676;29;20044;-81
2022/06/02 08:20:28;;;;;;;1.55;0.80;;;16.90;99.90;;;;;;4917667;29;20848;-76
2022/06/02 08:23:18;;;;;;;1.73;0.82;;;16.70;99.90;;;;;;4907497;29;20127;-77
2022/06/02 08:25:58;;;;;;;1.98;0.90;;;16.70;99.90;;;;;;4915944;29;20044;-80
2022/06/02 08:28:42;;;;;;;2.75;1.08;;;17.00;99.90;;;;;;4907640;29;20044;-77
2022/06/02 08:31:37;;;;;;;1.88;0.80;;;17.30;99.90;;;;;;4911288;29;20052;-77
2022/06/02 08:34:28;;;;;;;1.77;0.80;;;17.30;99.90;;;;;;4901867;29;20136;-77
2022/06/02 08:37:07;;;;;;;2.75;1.02;;;17.10;99.90;;;;;;4910469;29;20129;-76
2022/06/02 08:39:36;;;;;;;1.17;0.70;;;17.00;99.90;;;;;;4902554;29;20060;-76
2022/06/02 08:42:07;;;;;;;1.65;0.80;;;17.00;99.90;;;;;;4900960;29;20059;-77
2022/06/02 08:45:00;;;;;;;2.28;1.20;;;17.00;99.90;;;;;;4893510;29;20044;-79
2022/06/02 08:47:57;;;;;;;1.60;1.00;;;17.00;99.90;;;;;;4918126;29;21168;-80
2022/06/02 08:50:48;;;;;;;1.67;0.80;;;16.90;99.90;;;;;;4915906;29;20067;-78
2022/06/02 08:53:41;;;;;;;2.67;0.90;;;17.00;99.90;;;;;;4909015;29;20056;-79
2022/06/02 08:56:27;;;;;;;1.33;0.80;;;16.80;99.90;;;;;;4919625;29;20061;-78
2022/06/02 08:59:21;;;;;;;2.83;1.10;;;16.70;99.90;;;;;;4903277;29;20056;-80
2022/06/02 09:02:17;;;;;;;1.42;0.98;;;17.10;99.90;;;;;;4902710;29;20060;-79
2022/06/02 09:05:04;;;;;;;3.60;1.07;;;17.50;99.90;;;;;;4886684;29;20089;-77
2022/06/02 09:08:08;;;;;;;1.92;0.90;;;17.60;99.90;;;;;;4909560;29;20081;-77
2022/06/02 09:10:54;;;;;;;3.00;0.95;;;17.70;99.90;;;;;;4901222;29;20083;-76
2022/06/02 09:13:55;;;;;;;2.60;1.02;;;17.80;99.90;;;;;;4885218;29;20052;-76
2022/06/02 09:16:44;;;;;;;2.15;1.10;;;17.70;99.90;;;;;;4885835;29;20052;-77
2022/06/02 09:19:33;;;;;;;2.67;0.80;;;18.00;99.90;;;;;;4897089;29;20068;-77
2022/06/02 09:22:12;;;;;;;1.25;0.80;;;18.00;99.90;;;;;;4910046;29;20071;-77
2022/06/02 09:25:23;;;;;;;2.03;0.80;;;18.00;99.90;;;;;;4909411;29;20055;-76
2022/06/02 09:28:07;;;;;;;1.67;0.90;;;17.80;99.90;;;;;;4888691;29;20072;-76
2022/06/02 09:31:01;;;;;;;3.00;0.90;;;17.70;99.90;;;;;;4909121;29;20051;-76
2022/06/02 09:33:42;;;;;;;3.22;1.02;;;17.80;99.90;;;;;;4917675;29;20059;-77
2022/06/02 09:36:26;;;;;;;3.15;1.05;;;18.30;99.90;;;;;;4918545;29;20052;-77
2022/06/02 09:39:24;;;;;;;2.10;0.68;;;19.00;99.90;;;;;;4902009;29;20147;-78
2022/06/02 09:42:14;;;;;;;3.22;0.90;;;19.20;99.90;;;;;;4904037;29;20063;-78
2022/06/02 09:45:18;;;;;;;1.50;0.80;;;19.00;99.90;;;;;;4905948;29;20138;-76
2022/06/02 09:48:21;;;;;;;3.63;0.90;;;18.90;99.90;;;;;;4902259;29;20086;-76
2022/06/02 09:51:16;;;;;;;1.92;0.90;;;18.80;99.90;;;;;;4902539;29;20085;-76
2022/06/02 09:54:26;;;;;;;2.90;1.00;;;18.50;99.90;;;;;;4907786;29;20052;-76
2022/06/02 10:00:22;;;;;;;1.92;1.00;;;18.40;99.90;;;;;;4906829;29;20060;-79
2022/06/02 10:03:24;;;;;;;2.90;0.93;;;18.40;99.90;;;;;;4902146;29;20057;-76
2022/06/02 10:06:09;;;;;;;1.35;0.70;;;18.40;99.90;;;;;;4892754;29;20129;-76
2022/06/02 10:08:46;;;;;;;1.77;0.80;;;18.50;99.90;;;;;;4918674;29;20068;-76
2022/06/02 10:11:29;;;;;;;2.03;0.93;;;18.50;99.90;;;;;;4911813;29;20048;-77
2022/06/02 10:14:10;;;;;;;1.25;0.88;;;18.50;99.90;;;;;;4923333;29;20052;-76
2022/06/02 10:17:12;;;;;;;2.13;0.90;;;18.50;99.90;;;;;;4905499;29;20044;-77
2022/06/02 10:19:56;;;;;;;2.05;0.90;;;18.70;99.90;;;;;;4919902;29;20064;-77
2022/06/02 10:22:47;;;;;;;3.38;1.05;;;19.30;99.90;;;;;;4894839;29;20188;-77
2022/06/02 10:25:47;;;;;;;3.22;1.05;;;19.50;99.90;;;;;;4905190;29;20536;-77
2022/06/02 10:28:19;;;;;;;1.60;0.80;;;19.50;99.90;;;;;;4912276;29;20063;-76
2022/06/02 10:31:16;;;;;;;1.95;0.90;;;19.40;99.90;;;;;;4910856;29;20047;-76
2022/06/02 10:34:06;;;;;;;1.75;1.02;;;19.20;99.90;;;;;;4903882;29;20065;-76
2022/06/02 10:37:09;;;;;;;2.60;0.85;;;19.20;99.90;;;;;;4911268;29;20040;-80
2022/06/02 10:39:44;;;;;;;2.85;1.00;;;19.70;99.90;;;;;;4910321;29;20087;-77
2022/06/02 10:42:31;;;;;;;2.67;1.10;;;19.90;99.90;;;;;;4921085;29;20135;-78
2022/06/02 10:45:39;;;;;;;1.35;0.75;;;19.70;99.90;;;;;;4911532;29;20096;-78
2022/06/02 10:48:34;;;;;;;3.40;0.90;;;19.40;99.90;;;;;;4890821;29;20414;-75
2022/06/02 10:51:42;;;;;;;3.15;1.00;;;19.20;99.90;;;;;;4909765;29;20060;-77
2022/06/02 10:54:44;;;;;;;1.25;0.80;;;18.80;99.90;;;;;;4909722;29;20486;-76
2022/06/02 10:57:38;;;;;;;1.35;0.70;;;18.80;99.90;;;;;;4920886;29;20067;-76
2022/06/02 11:00:36;;;;;;;1.55;0.70;;;19.00;99.90;;;;;;4893180;29;20040;-76
2022/06/02 11:03:16;;;;;;;3.05;0.90;;;19.00;99.90;;;;;;4878883;29;20066;-77
2022/06/02 11:06:01;;;;;;;1.73;0.98;;;19.00;99.90;;;;;;4904967;29;20052;-76
2022/06/02 11:08:30;;;;;;;1.05;0.70;;;19.20;99.90;;;;;;4903779;29;20431;-76
2022/06/02 11:11:11;;;;;;;1.48;0.70;;;19.20;99.90;;;;;;4909331;29;20115;-77
2022/06/02 11:13:56;;;;;;;1.52;0.80;;;18.90;99.90;;;;;;4916452;29;20048;-76
2022/06/02 11:16:49;;;;;;;4.35;1.27;;;18.80;99.90;;;;;;4887020;29;20047;-78
2022/06/02 11:19:50;;;;;;;2.20;0.80;;;19.30;99.90;;;;;;4909370;29;20041;-77
2022/06/02 11:22:37;;;;;;;3.05;0.70;;;19.80;99.90;;;;;;4904159;29;20397;-77
2022/06/02 11:25:33;;;;;;;1.75;0.90;;;19.80;99.90;;;;;;4902951;29;20048;-77
2022/06/02 11:28:15;;;;;;;1.88;0.82;;;20.00;99.90;;;;;;4905525;29;20122;-77
2022/06/02 11:31:16;;;;;;;2.08;0.88;;;20.50;99.90;;;;;;4902500;29;20735;-77
2022/06/02 11:33:57;;;;;;;1.77;0.90;;;21.00;99.90;;;;;;4895304;29;20866;-77
2022/06/02 11:37:00;;;;;;;1.40;0.70;;;21.00;99.90;;;;;;4891413;29;20400;-78
2022/06/02 11:39:48;;;;;;;1.45;0.73;;;21.00;99.50;;;;;;4907462;29;20497;-77
2022/06/02 11:42:20;;;;;;;2.10;0.70;;;21.00;99.60;;;;;;4918521;29;20064;-77
2022/06/02 11:44:49;;;;;;;2.30;0.90;;;20.80;99.50;;;;;;4907413;29;20048;-76
2022/06/02 11:47:42;;;;;;;1.17;0.70;;;20.40;99.90;;;;;;4907495;29;20123;-76
2022/06/02 11:50:46;;;;;;;1.98;0.98;;;20.40;99.90;;;;;;4905783;29;20052;-77
2022/06/02 11:53:37;;;;;;;2.08;0.77;;;20.50;99.90;;;;;;4907938;29;20075;-76
2022/06/02 11:56:22;;;;;;;0.82;0.77;;;20.50;99.90;;;;;;4905422;29;20411;-76
2022/06/02 11:58:58;;;;;;;1.10;0.80;;;20.30;99.90;;;;;;4917383;29;20056;-76
2022/06/02 12:01:31;;;;;;;1.52;0.80;;;20.50;99.90;;;;;;4908492;29;20071;-75
2022/06/02 12:04:15;;;;;;;2.45;0.90;;;20.30;99.90;;;;;;4901967;29;20155;-76
2022/06/02 12:06:52;;;;;;;1.42;0.65;;;20.30;99.90;;;;;;4901566;29;20048;-76
2022/06/02 12:09:40;;;;;;;2.05;0.70;;;20.30;99.90;;;;;;4917492;29;20094;-76
2022/06/02 12:12:09;;;;;;;2.28;0.93;;;20.10;99.90;;;;;;4892842;29;20087;-76
2022/06/02 12:14:56;;;;;;;1.75;0.90;;;20.20;99.90;;;;;;4907996;29;20053;-77
2022/06/02 12:17:54;;;;;;;1.30;0.70;;;20.70;99.90;;;;;;4885531;29;20521;-76
2022/06/02 12:20:22;;;;;;;1.35;0.80;;;21.40;99.50;;;;;;4888776;29;20053;-76
2022/06/02 12:23:17;;;;;;;0.90;0.60;;;21.80;98.80;;;;;;4890334;29;20071;-77
2022/06/02 12:26:00;;;;;;;0.90;0.70;;;22.30;98.00;;;;;;4906105;29;20047;-76
2022/06/02 12:29:04;;;;;;;1.48;0.80;;;22.30;96.60;;;;;;4912784;29;20048;-77
2022/06/02 12:31:54;;;;;;;2.33;0.95;;;22.20;97.80;;;;;;4906566;29;20048;-77
2022/06/02 12:34:28;;;;;;;2.53;0.88;;;21.90;97.00;;;;;;4905781;29;20040;-77
2022/06/02 12:37:25;;;;;;;2.30;0.87;;;22.10;97.40;;;;;;4901304;29;20063;-76
2022/06/02 12:40:25;;;;;;;2.60;0.85;;;22.50;97.30;;;;;;4905209;29;20044;-76
2022/06/02 12:43:28;;;;;;;2.65;0.90;;;22.50;96.50;;;;;;4902044;29;20075;-76
2022/06/02 12:46:06;;;;;;;1.60;0.90;;;22.50;97.10;;;;;;4917487;29;20047;-77
2022/06/02 12:49:18;;;;;;;2.03;0.75;;;22.50;97.00;;;;;;4913710;29;20048;-76
2022/06/02 12:51:52;;;;;;;2.05;0.80;;;22.80;96.60;;;;;;4906607;29;20106;-76
2022/06/02 12:54:21;;;;;;;1.70;0.80;;;22.70;96.10;;;;;;4906972;29;20130;-79
2022/06/02 12:57:09;;;;;;;2.45;0.98;;;22.80;96.40;;;;;;4915853;29;20084;-76
2022/06/02 12:59:40;;;;;;;2.35;1.13;;;22.70;96.00;;;;;;4885800;29;20090;-75
2022/06/02 13:02:11;;;;;;;2.17;0.90;;;22.80;96.20;;;;;;4906075;29;20531;-76
2022/06/02 13:04:56;;;;;;;2.95;1.38;;;23.00;96.00;;;;;;4915457;29;20143;-77
2022/06/02 13:07:53;;;;;;;2.00;0.90;;;23.10;95.90;;;;;;4907685;29;21080;-75
2022/06/02 13:10:37;;;;;;;1.50;0.73;;;23.30;94.20;;;;;;4892967;29;20048;-76
2022/06/02 13:13:20;;;;;;;2.25;1.10;;;23.50;95.30;;;;;;4906605;29;20067;-76
2022/06/02 13:16:14;;;;;;;1.85;1.08;;;23.70;95.00;;;;;;4906791;29;20052;-76
2022/06/02 13:18:51;;;;;;;1.55;0.90;;;23.90;93.90;;;;;;4900840;29;20558;-76
2022/06/02 13:21:44;;;;;;;1.17;0.80;;;24.20;93.40;;;;;;4907941;29;20644;-75
2022/06/02 13:24:39;;;;;;;1.92;0.80;;;24.40;93.20;;;;;;4902086;29;20072;-76
2022/06/02 13:27:36;;;;;;;2.20;0.80;;;24.60;93.10;;;;;;4907799;29;20495;-76
2022/06/02 13:30:20;;;;;;;2.05;0.90;;;24.50;91.70;;;;;;4912261;29;20060;-76
2022/06/02 13:33:17;;;;;;;2.10;0.80;;;24.50;92.80;;;;;;4902161;29;20140;-76
2022/06/02 13:36:23;;;;;;;4.53;0.90;;;24.40;91.70;;;;;;4892175;29;20391;-76
2022/06/02 13:39:25;;;;;;;2.40;1.10;;;24.50;92.60;;;;;;4888191;29;20099;-78
2022/06/02 13:42:01;;;;;;;2.17;1.00;;;24.50;91.50;;;;;;4903589;29;20052;-83
2022/06/02 13:44:42;;;;;;;3.90;1.10;;;24.60;92.10;;;;;;4903365;29;20127;-78
2022/06/02 13:47:35;;;;;;;2.08;1.05;;;24.70;91.80;;;;;;4911698;29;20059;-78
2022/06/02 13:50:14;;;;;;;2.03;1.00;;;24.90;91.40;;;;;;4912350;29;20568;-78
2022/06/02 13:52:55;;;;;;;1.55;0.77;;;24.90;91.20;;;;;;4909956;29;20055;-78
2022/06/02 13:59:33;;;;;;;3.38;1.23;;;25.10;89.20;;;;;;4911226;29;20147;-78
2022/06/02 14:02:09;;;;;;;2.15;0.80;;;25.00;88.70;;;;;;4912254;29;20052;-78
2022/06/02 14:04:57;;;;;;;1.77;1.00;;;24.80;90.40;;;;;;4908349;29;20112;-78
2022/06/02 14:07:45;;;;;;;2.58;1.05;;;24.80;90.30;;;;;;4905707;29;20628;-78
2022/06/02 14:10:52;;;;;;;3.20;0.90;;;24.70;90.70;;;;;;4912304;29;20090;-78
2022/06/02 14:13:26;;;;;;;2.13;1.00;;;24.60;89.40;;;;;;4892213;29;20102;-78
2022/06/02 14:16:06;;;;;;;4.00;1.13;;;24.50;90.20;;;;;;4911890;29;20490;-77
2022/06/02 14:18:50;;;;;;;1.48;0.90;;;24.50;89.50;;;;;;4889199;29;20090;-79
2022/06/02 14:21:34;;;;;;;2.97;1.00;;;24.40;89.60;;;;;;4921862;29;20521;-78
2022/06/02 14:24:19;;;;;;;2.05;0.90;;;24.30;90.40;;;;;;4911150;29;20055;-78
2022/06/02 14:27:13;;;;;;;2.42;0.90;;;24.00;90.10;;;;;;4910411;29;20052;-82
2022/06/02 14:30:00;;;;;;;1.65;0.80;;;23.90;90.80;;;;;;4904502;29;20115;-78
2022/06/02 14:32:26;;;;;;;2.22;0.90;;;23.90;90.20;;;;;;4905412;29;20076;-78
2022/06/02 14:35:21;;;;;;;2.13;0.90;;;23.70;90.60;;;;;;4910507;29;20518;-80
2022/06/02 14:38:12;;;;;;;3.13;0.90;;;23.60;90.70;;;;;;4894461;29;20508;-79
2022/06/02 14:40:47;;;;;;;4.53;0.90;;;23.70;90.60;;;;;;4918114;29;20052;-79